Map

Track Data

SID SEASON NUMBER BASIN SUBBASIN NAME ISO_TIME NATURE LAT LON WMO_WIND WMO_PRES WMO_AGENCY TRACK_TYPE DIST2LAND LANDFALL IFLAG USA_AGENCY USA_ATCF_ID USA_LAT USA_LON USA_RECORD USA_STATUS USA_WIND USA_PRES USA_SSHS USA_R34_NE USA_R34_SE USA_R34_SW USA_R34_NW USA_R50_NE USA_R50_SE USA_R50_SW USA_R50_NW USA_R64_NE USA_R64_SE USA_R64_SW USA_R64_NW USA_POCI USA_ROCI USA_RMW USA_EYE TOKYO_LAT TOKYO_LON TOKYO_GRADE TOKYO_WIND TOKYO_PRES TOKYO_R50_DIR TOKYO_R50_LONG TOKYO_R50_SHORT TOKYO_R30_DIR TOKYO_R30_LONG TOKYO_R30_SHORT TOKYO_LAND CMA_LAT CMA_LON CMA_CAT CMA_WIND CMA_PRES HKO_LAT HKO_LON HKO_CAT HKO_WIND HKO_PRES NEWDELHI_LAT NEWDELHI_LON NEWDELHI_GRADE NEWDELHI_WIND NEWDELHI_PRES NEWDELHI_CI NEWDELHI_DP NEWDELHI_POCI REUNION_LAT REUNION_LON REUNION_TYPE REUNION_WIND REUNION_PRES REUNION_TNUM REUNION_CI REUNION_RMW REUNION_R34_NE REUNION_R34_SE REUNION_R34_SW REUNION_R34_NW REUNION_R50_NE REUNION_R50_SE REUNION_R50_SW REUNION_R50_NW REUNION_R64_NE REUNION_R64_SE REUNION_R64_SW REUNION_R64_NW BOM_LAT BOM_LON BOM_TYPE BOM_WIND BOM_PRES BOM_TNUM BOM_CI BOM_RMW BOM_R34_NE BOM_R34_SE BOM_R34_SW BOM_R34_NW BOM_R50_NE BOM_R50_SE BOM_R50_SW BOM_R50_NW BOM_R64_NE BOM_R64_SE BOM_R64_SW BOM_R64_NW BOM_ROCI BOM_POCI BOM_EYE BOM_POS_METHOD BOM_PRES_METHOD NADI_LAT NADI_LON NADI_CAT NADI_WIND NADI_PRES WELLINGTON_LAT WELLINGTON_LON WELLINGTON_WIND WELLINGTON_PRES DS824_LAT DS824_LON DS824_STAGE DS824_WIND DS824_PRES TD9636_LAT TD9636_LON TD9636_STAGE TD9636_WIND TD9636_PRES TD9635_LAT TD9635_LON TD9635_WIND TD9635_PRES TD9635_ROCI NEUMANN_LAT NEUMANN_LON NEUMANN_CLASS NEUMANN_WIND NEUMANN_PRES MLC_LAT MLC_LON MLC_CLASS MLC_WIND MLC_PRES USA_GUST BOM_GUST BOM_GUST_PER REUNION_GUST REUNION_GUST_PER USA_SEAHGT USA_SEARAD_NE USA_SEARAD_SE USA_SEARAD_SW USA_SEARAD_NW STORM_SPEED STORM_DIR
1904345S08063 1905 45 SI MM NOT_NAMED 1904-12-10 00:00:00 TS -7.60000 62.6000 main 1495 1484 _________O____ -1 -7.60000 62.6000 TC 7 262
1904345S08063 1905 45 SI MM NOT_NAMED 1904-12-10 03:00:00 TS -7.65007 62.2475 main 1470 1441 _________P____ -1 -7.65007 62.2475 TC 7 262
1904345S08063 1905 45 SI MM NOT_NAMED 1904-12-10 06:00:00 TS -7.70000 61.9000 main 1441 1411 _________O____ -1 -7.70000 61.9000 TC 7 262
1904345S08063 1905 45 SI MM NOT_NAMED 1904-12-10 09:00:00 TS -7.74995 61.5575 main 1411 1366 _________P____ -1 -7.74995 61.5575 TC 7 262
1904345S08063 1905 45 SI MM NOT_NAMED 1904-12-10 12:00:00 TS -7.80000 61.2000 main 1366 1327 _________O____ -1 -7.80000 61.2000 TC 8 262
1904345S08063 1905 45 SI MM NOT_NAMED 1904-12-10 15:00:00 TS -7.84998 60.8075 main 1327 1282 _________P____ -1 -7.84998 60.8075 TC 8 263
1904345S08063 1905 45 SI MM NOT_NAMED 1904-12-10 18:00:00 TS -7.90000 60.4000 main 1282 1238 _________O____ -1 -7.90000 60.4000 TC 8 263
1904345S08063 1905 45 SI MM NOT_NAMED 1904-12-10 21:00:00 TS -7.95752 59.9775 main 1238 1199 _________P____ -1 -7.95752 59.9775 TC 8 263
1904345S08063 1905 45 SI MM NOT_NAMED 1904-12-11 00:00:00 TS -8.00000 59.6000 main 1199 1170 _________O____ -1 -8.00000 59.6000 TC 6 266
1904345S08063 1905 45 SI MM NOT_NAMED 1904-12-11 03:00:00 TS -7.99994 59.3275 main 1170 1151 _________P____ -1 -7.99994 59.3275 TC 5 270
1904345S08063 1905 45 SI MM NOT_NAMED 1904-12-11 06:00:00 TS -8.00000 59.1000 main 1151 1132 _________O____ -1 -8.00000 59.1000 TC 5 265
1904345S08063 1905 45 SI MM NOT_NAMED 1904-12-11 09:00:00 TS -8.04249 58.8500 main 1132 1098 _________P____ -1 -8.04249 58.8500 TC 5 259
1904345S08063 1905 45 SI MM NOT_NAMED 1904-12-11 12:00:00 TS -8.10000 58.6000 main 1098 1079 _________O____ -1 -8.10000 58.6000 TC 5 258
1904345S08063 1905 45 SI MM NOT_NAMED 1904-12-11 15:00:00 TS -8.14999 58.3500 main 1079 1045 _________P____ -1 -8.14999 58.3500 TC 5 259
1904345S08063 1905 45 SI MM NOT_NAMED 1904-12-11 18:00:00 TS -8.20000 58.1000 main 1045 1026 _________O____ -1 -8.20000 58.1000 TC 5 258
1904345S08063 1905 45 SI MM NOT_NAMED 1904-12-11 21:00:00 TS -8.24995 57.8650 main 1026 992 _________P____ -1 -8.24995 57.8650 TC 5 259
1904345S08063 1905 45 SI MM NOT_NAMED 1904-12-12 00:00:00 TS -8.30000 57.6000 main 992 965 _________O____ -1 -8.30000 57.6000 TC 6 260
1904345S08063 1905 45 SI MM NOT_NAMED 1904-12-12 03:00:00 TS -8.35001 57.2650 main 959 922 _________P____ -1 -8.35001 57.2650 TC 7 262
1904345S08063 1905 45 SI MM NOT_NAMED 1904-12-12 06:00:00 TS -8.40000 56.9000 main 922 895 _________O____ -1 -8.40000 56.9000 TC 7 263
1904345S08063 1905 45 SI MM NOT_NAMED 1904-12-12 09:00:00 TS -8.44249 56.5425 main 886 851 _________P____ -1 -8.44249 56.5425 TC 7 262
1904345S08063 1905 45 SI MM NOT_NAMED 1904-12-12 12:00:00 TS -8.50000 56.2000 main 851 817 _________O____ -1 -8.50000 56.2000 TC 7 257
1904345S08063 1905 45 SI MM NOT_NAMED 1904-12-12 15:00:00 TS -8.59246 55.8925 main 817 783 _________P____ -1 -8.59246 55.8925 TC 6 251
1904345S08063 1905 45 SI MM NOT_NAMED 1904-12-12 18:00:00 TS -8.70000 55.6000 main 783 749 _________O____ -1 -8.70000 55.6000 TC 6 250
1904345S08063 1905 45 SI MM NOT_NAMED 1904-12-12 21:00:00 TS -8.79996 55.3075 main 749 715 _________P____ -1 -8.79996 55.3075 TC 6 251
1904345S08063 1905 45 SI MM NOT_NAMED 1904-12-13 00:00:00 TS -8.90000 55.0000 main 715 681 _________O____ -1 -8.90000 55.0000 TC 7 253
1904345S08063 1905 45 SI MM NOT_NAMED 1904-12-13 03:00:00 TS -8.99996 54.6650 main 681 638 _________P____ -1 -8.99996 54.6650 TC 7 254
1904345S08063 1905 45 SI MM NOT_NAMED 1904-12-13 06:00:00 TS -9.10000 54.3000 main 638 595 _________O____ -1 -9.10000 54.3000 TC 8 255
1904345S08063 1905 45 SI MM NOT_NAMED 1904-12-13 09:00:00 TS -9.20000 53.9000 main 595 553 _________P____ -1 -9.20000 53.9000 TC 8 256
1904345S08063 1905 45 SI MM NOT_NAMED 1904-12-13 12:00:00 TS -9.30000 53.5000 main 553 520 _________O____ -1 -9.30000 53.5000 TC 8 254
1904345S08063 1905 45 SI MM NOT_NAMED 1904-12-13 15:00:00 TS -9.40744 53.1425 main 511 479 _________P____ -1 -9.40744 53.1425 TC 7 254
1904345S08063 1905 45 SI MM NOT_NAMED 1904-12-13 18:00:00 TS -9.50000 52.8000 main 479 454 _________O____ -1 -9.50000 52.8000 TC 7 258
1904345S08063 1905 45 SI MM NOT_NAMED 1904-12-13 21:00:00 TS -9.54999 52.4424 main 446 414 _________P____ -1 -9.54999 52.4424 TC 7 262
1904345S08063 1905 45 SI MM NOT_NAMED 1904-12-14 00:00:00 TS -9.60000 52.1000 main 414 383 _________O____ -1 -9.60000 52.1000 TC 7 257
1904345S08063 1905 45 SI MM NOT_NAMED 1904-12-14 03:00:00 TS -9.69245 51.7925 main 383 352 _________P____ -1 -9.69245 51.7925 TC 6 251
1904345S08063 1905 45 SI MM NOT_NAMED 1904-12-14 06:00:00 TS -9.80000 51.5000 main 352 322 _________O____ -1 -9.80000 51.5000 TC 6 249
1904345S08063 1905 45 SI MM NOT_NAMED 1904-12-14 09:00:00 TS -9.90743 51.2150 main 322 293 _________P____ -1 -9.90743 51.2150 TC 6 251
1904345S08063 1905 45 SI MM NOT_NAMED 1904-12-14 12:00:00 TS -10.0000 50.9000 main 293 269 _________O____ -1 -10.0000 50.9000 TC 7 258
1904345S08063 1905 45 SI MM NOT_NAMED 1904-12-14 15:00:00 TS -10.0500 50.5149 main 269 240 _________P____ -1 -10.0500 50.5149 TC 8 263
1904345S08063 1905 45 SI MM NOT_NAMED 1904-12-14 18:00:00 TS -10.1000 50.1000 main 240 217 _________O____ -1 -10.1000 50.1000 TC 8 260
1904345S08063 1905 45 SI MM NOT_NAMED 1904-12-14 21:00:00 TS -10.1849 49.7149 main 217 201 _________P____ -1 -10.1849 49.7149 TC 8 256
1904345S08063 1905 45 SI MM NOT_NAMED 1904-12-15 00:00:00 TS -10.3000 49.3000 main 201 190 _________O____ -1 -10.3000 49.3000 TC 9 254
1904345S08063 1905 45 SI MM NOT_NAMED 1904-12-15 03:00:00 TS -10.4350 48.8075 main 195 184 _________P____ -1 -10.4350 48.8075 TC 10 253
1904345S08063 1905 45 SI MM NOT_NAMED 1904-12-15 06:00:00 TS -10.6000 48.3000 main 194 191 _________O____ -1 -10.6000 48.3000 TC 10 249
1904345S08063 1905 45 SI MM NOT_NAMED 1904-12-15 09:00:00 TS -10.7924 47.8499 main 210 210 _________P____ -1 -10.7924 47.8499 TC 10 246
1904345S08063 1905 45 SI MM NOT_NAMED 1904-12-15 12:00:00 TS -11.0000 47.4000 main 226 226 _________O____ -1 -11.0000 47.4000 TC 10 246
1904345S08063 1905 45 SI MM NOT_NAMED 1904-12-15 15:00:00 TS -11.2074 46.9150 main 252 252 _________P____ -1 -11.2074 46.9150 TC 11 248
1904345S08063 1905 45 SI MM NOT_NAMED 1904-12-15 18:00:00 TS -11.4000 46.4000 main 288 288 _________O____ -1 -11.4000 46.4000 TC 11 251
1904345S08063 1905 45 SI MM NOT_NAMED 1904-12-15 21:00:00 TS -11.5498 45.8723 main 327 327 _________P____ -1 -11.5498 45.8723 TC 11 254
1904345S08063 1905 45 SI MM NOT_NAMED 1904-12-16 00:00:00 TS -11.7000 45.3000 main 360 360 _________O____ -1 -11.7000 45.3000 TC 12 254
1904345S08063 1905 45 SI MM NOT_NAMED 1904-12-16 03:00:00 TS -11.8924 44.6650 main 401 370 _________P____ -1 -11.8924 44.6650 TC 13 253
1904345S08063 1905 45 SI MM NOT_NAMED 1904-12-16 06:00:00 TS -12.1000 44.0000 main 370 306 _________O____ -1 -12.1000 44.0000 TC 14 253
1904345S08063 1905 45 SI MM NOT_NAMED 1904-12-16 09:00:00 TS -12.2999 43.3349 main 295 228 _________P____ -1 -12.2999 43.3349 TC 13 253
1904345S08063 1905 45 SI MM NOT_NAMED 1904-12-16 12:00:00 TS -12.5000 42.7000 main 228 173 _________O____ -1 -12.5000 42.7000 TC 12 251
1904345S08063 1905 45 SI MM NOT_NAMED 1904-12-16 15:00:00 TS -12.6923 42.1348 main 162 109 _________P____ -1 -12.6923 42.1348 TC 11 250
1904345S08063 1905 45 SI MM NOT_NAMED 1904-12-16 18:00:00 TS -12.9000 41.6000 main 109 63 _________O____ -1 -12.9000 41.6000 TC 11 247
1904345S08063 1905 45 SI MM NOT_NAMED 1904-12-16 21:00:00 TS -13.1403 41.0553 main 63 0 _________P____ -1 -13.1403 41.0553 TC 12 245
1904345S08063 1905 45 SI MM NOT_NAMED 1904-12-17 00:00:00 TS -13.4000 40.5000 main 0 _________O____ -1 -13.4000 40.5000 TC 12 244

About IBTrACS Database

This database is a web-friendly format of International Best Track Archive for Climate Stewardship (IBTrACS), a global best track data archive curated by NOAA dating back to 1842.

Updated: 2021-12-01